Time;durP1;ratioP1;P1;durP2;ratioP2;P2;SDS_P1;SDS_P2;PMS_P1;PMS_P2;Temp;Humidity;BMP_temperature;BMP_pressure;BME280_temperature;BME280_humidity;BME280_pressure;Samples;Min_cycle;Max_cycle;Signal;HPM_P1;HPM_P2
2024/01/13 00:02:26;;;;;;;8.50;5.40;;;;;;;-0.96;37.25;102211.80;107231;1253;25353;-51
2024/01/13 00:04:53;;;;;;;9.50;4.60;;;;;;;-0.97;37.10;102211.09;106486;1257;1003577;-51
2024/01/13 00:07:20;;;;;;;9.20;5.10;;;;;;;-0.97;37.21;102212.29;107153;1263;25342;-51
2024/01/13 00:09:47;;;;;;;10.30;5.70;;;;;;;-0.97;37.22;102209.20;106876;1273;25405;-51
2024/01/13 00:12:14;;;;;;;8.60;5.50;;;;;;;-0.99;37.41;102204.53;107089;1257;25414;-51
2024/01/13 00:14:41;;;;;;;10.00;6.40;;;;;;;-1.00;37.42;102198.01;106417;1254;1002895;-51
2024/01/13 00:17:09;;;;;;;9.20;6.00;;;;;;;-1.00;37.33;102193.56;107167;1251;25484;-53
2024/01/13 00:19:36;;;;;;;14.30;7.40;;;;;;;-1.00;37.22;102197.99;106188;1257;1002959;-53
2024/01/13 00:22:03;;;;;;;13.70;7.90;;;;;;;-1.01;37.16;102200.50;106779;1273;25408;-53
2024/01/13 00:24:30;;;;;;;9.40;5.60;;;;;;;-1.01;37.01;102200.51;106366;1257;1003043;-53
2024/01/13 00:26:57;;;;;;;10.10;5.50;;;;;;;-1.01;37.06;102203.58;106278;1257;1003770;-55
2024/01/13 00:29:24;;;;;;;11.40;5.80;;;;;;;-1.00;37.12;102203.25;106362;1253;1002979;-53
2024/01/13 00:31:51;;;;;;;10.20;5.20;;;;;;;-1.01;37.03;102199.33;106824;1259;25338;-52
2024/01/13 00:34:18;;;;;;;10.10;5.70;;;;;;;-1.01;37.01;102194.89;107056;1260;25372;-52
2024/01/13 00:36:46;;;;;;;8.00;5.50;;;;;;;-1.01;37.18;102194.55;106347;1258;1003225;-53
2024/01/13 00:39:12;;;;;;;9.50;5.50;;;;;;;-1.01;37.17;102194.20;107273;1256;25362;-52
2024/01/13 00:41:39;;;;;;;12.70;5.80;;;;;;;-1.02;37.23;102192.12;107129;1257;25478;-52
2024/01/13 00:44:07;;;;;;;9.50;5.70;;;;;;;-1.02;37.09;102193.79;107154;1257;25368;-53
2024/01/13 00:46:33;;;;;;;8.50;5.70;;;;;;;-1.04;37.12;102186.23;107071;1256;24205;-53
2024/01/13 00:49:01;;;;;;;14.00;6.60;;;;;;;-1.05;36.90;102184.80;107020;1260;25510;-52
2024/01/13 00:51:30;;;;;;;8.30;5.60;;;;;;;-1.07;36.98;102183.36;106406;1250;1002969;-52
2024/01/13 00:53:57;;;;;;;11.60;6.00;;;;;;;-1.08;36.97;102184.13;106447;1256;1003601;-52
2024/01/13 00:56:24;;;;;;;9.50;6.00;;;;;;;-1.10;37.15;102179.82;107160;1255;25487;-52
2024/01/13 00:58:51;;;;;;;9.90;6.10;;;;;;;-1.11;37.10;102181.30;106930;1259;22648;-52
2024/01/13 01:01:18;;;;;;;9.60;6.00;;;;;;;-1.11;36.86;102178.20;106830;1267;25365;-52
2024/01/13 01:03:45;;;;;;;11.00;6.20;;;;;;;-1.12;36.86;102174.57;107059;1257;25478;-52
2024/01/13 01:06:14;;;;;;;11.00;6.10;;;;;;;-1.14;37.07;102170.05;106369;1257;1003302;-52
2024/01/13 01:08:42;;;;;;;9.60;5.40;;;;;;;-1.16;37.13;102165.71;106793;1260;25328;-52
2024/01/13 01:11:10;;;;;;;10.20;6.50;;;;;;;-1.16;37.14;102165.88;107100;1257;25468;-52
2024/01/13 01:13:38;;;;;;;9.90;6.20;;;;;;;-1.16;37.29;102159.24;106860;1260;23275;-54
2024/01/13 01:16:05;;;;;;;9.60;5.80;;;;;;;-1.16;37.36;102153.65;107114;1250;22524;-52
2024/01/13 01:18:33;;;;;;;10.40;6.30;;;;;;;-1.15;37.42;102148.04;106342;1255;1002994;-52
2024/01/13 01:21:15;;;;;;;12.60;6.80;;;;;;;-1.14;37.41;102142.85;106999;1256;25356;-52
2024/01/13 01:23:46;;;;;;;12.40;7.00;;;;;;;-1.13;37.37;102143.05;106293;1266;1003502;-52
2024/01/13 01:26:14;;;;;;;11.70;6.50;;;;;;;-1.14;37.38;102137.05;107077;1253;25375;-52
2024/01/13 01:28:41;;;;;;;12.40;6.50;;;;;;;-1.14;37.37;102136.36;107082;1257;25474;-52
2024/01/13 01:31:08;;;;;;;13.40;6.80;;;;;;;-1.15;37.41;102128.27;107160;1256;25386;-52
2024/01/13 01:33:37;;;;;;;8.60;5.70;;;;;;;-1.16;37.40;102128.60;106901;1254;22532;-52
2024/01/13 01:36:06;;;;;;;13.10;6.10;;;;;;;-1.16;37.42;102124.17;107130;1254;23865;-52
2024/01/13 01:38:33;;;;;;;12.40;6.90;;;;;;;-1.17;37.40;102124.44;105954;1267;1003776;-53
2024/01/13 01:41:16;;;;;;;12.20;7.10;;;;;;;-1.17;37.41;102122.22;107027;1256;25449;-52
2024/01/13 01:43:45;;;;;;;14.20;6.70;;;;;;;-1.19;37.49;102116.54;106347;1260;1003505;-52
2024/01/13 01:46:14;;;;;;;10.90;6.70;;;;;;;-1.19;37.41;102111.05;106826;1267;25417;-52
2024/01/13 01:48:42;;;;;;;10.60;6.20;;;;;;;-1.20;37.50;102103.52;106928;1259;22544;-52
2024/01/13 01:51:16;;;;;;;11.80;5.60;;;;;;;-1.21;37.45;102098.88;107150;1256;23937;-52
2024/01/13 01:53:44;;;;;;;12.70;6.50;;;;;;;-1.23;37.29;102099.84;106418;1255;1003218;-52
2024/01/13 01:56:13;;;;;;;11.40;6.50;;;;;;;-1.23;37.27;102090.79;106330;1255;1002879;-51
2024/01/13 01:58:41;;;;;;;14.00;7.10;;;;;;;-1.24;37.28;102088.04;107150;1255;24326;-52
2024/01/13 02:01:08;;;;;;;10.40;6.20;;;;;;;-1.24;37.35;102083.59;106307;1258;1003582;-52
2024/01/13 02:03:36;;;;;;;11.90;6.20;;;;;;;-1.25;37.18;102081.67;106887;1256;25355;-52
2024/01/13 02:06:04;;;;;;;14.00;6.50;;;;;;;-1.26;37.36;102073.80;106694;1259;25370;-52
2024/01/13 02:08:32;;;;;;;13.70;6.10;;;;;;;-1.26;37.27;102072.95;106754;1261;25338;-52
2024/01/13 02:11:10;;;;;;;9.80;6.00;;;;;;;-1.26;37.30;102067.48;105961;1259;1003384;-52
2024/01/13 02:13:37;;;;;;;15.00;6.70;;;;;;;-1.28;37.43;102065.00;106817;1259;22542;-52
2024/01/13 02:16:07;;;;;;;10.70;6.20;;;;;;;-1.30;37.55;102062.20;106405;1271;25422;-52
2024/01/13 02:18:35;;;;;;;9.60;6.20;;;;;;;-1.31;37.43;102058.92;106791;1259;25322;-52
2024/01/13 02:21:09;;;;;;;8.90;5.90;;;;;;;-1.32;37.29;102054.13;106005;1260;1003376;-52
2024/01/13 02:23:37;;;;;;;11.00;6.50;;;;;;;-1.32;37.53;102059.75;105874;1262;1003077;-52
2024/01/13 02:26:04;;;;;;;12.10;6.30;;;;;;;-1.31;37.56;102064.55;106742;1259;25356;-53
2024/01/13 02:28:31;;;;;;;10.70;5.90;;;;;;;-1.31;37.43;102062.66;106092;1258;1002995;-52
2024/01/13 02:31:14;;;;;;;10.00;5.60;;;;;;;-1.30;37.58;102056.92;106643;1258;25558;-52
2024/01/13 02:33:41;;;;;;;9.10;5.50;;;;;;;-1.30;37.54;102057.79;106722;1262;22659;-52
2024/01/13 02:36:08;;;;;;;14.10;5.70;;;;;;;-1.29;37.51;102053.92;106872;1262;25342;-52
2024/01/13 02:38:35;;;;;;;12.00;5.70;;;;;;;-1.28;37.30;102051.41;106994;1256;25356;-52
2024/01/13 02:41:05;;;;;;;12.60;6.70;;;;;;;-1.29;37.43;102050.70;106326;1266;1002919;-52
2024/01/13 02:43:33;;;;;;;11.40;6.30;;;;;;;-1.29;37.17;102042.49;106940;1259;25392;-52
2024/01/13 02:46:00;;;;;;;10.00;6.00;;;;;;;-1.30;37.22;102038.21;106831;1250;616110;-52
2024/01/13 02:48:29;;;;;;;11.40;6.50;;;;;;;-1.31;37.28;102040.38;107093;1257;25414;-52
2024/01/13 02:51:06;;;;;;;11.00;6.10;;;;;;;-1.32;37.24;102042.02;106835;1259;25337;-52
2024/01/13 02:53:33;;;;;;;9.60;5.70;;;;;;;-1.34;37.24;102038.55;106897;1256;24227;-52
2024/01/13 02:56:01;;;;;;;8.90;5.20;;;;;;;-1.34;37.20;102030.36;107114;1256;25494;-52
2024/01/13 02:58:28;;;;;;;10.40;6.00;;;;;;;-1.35;37.17;102028.78;107156;1264;25337;-51
2024/01/13 03:01:09;;;;;;;10.20;6.40;;;;;;;-1.36;37.18;102022.77;107127;1256;25422;-52
2024/01/13 03:03:36;;;;;;;12.70;6.40;;;;;;;-1.36;37.30;102020.73;106083;1262;1002974;-52
2024/01/13 03:06:04;;;;;;;10.90;5.70;;;;;;;-1.37;37.20;102016.77;107127;1251;24238;-51
2024/01/13 03:08:32;;;;;;;9.90;6.20;;;;;;;-1.38;37.23;102018.27;106270;1256;1002910;-52
2024/01/13 03:11:11;;;;;;;12.90;6.50;;;;;;;-1.37;37.07;102022.75;106846;1272;25239;-51
2024/01/13 03:13:38;;;;;;;15.10;5.90;;;;;;;-1.36;37.37;102019.55;106764;1273;25356;-53
2024/01/13 03:16:07;;;;;;;11.70;5.50;;;;;;;-1.36;37.08;102019.86;107080;1253;25366;-53
2024/01/13 03:18:35;;;;;;;9.50;6.00;;;;;;;-1.37;37.22;102014.89;106319;1253;1002929;-52
2024/01/13 03:21:11;;;;;;;9.20;5.40;;;;;;;-1.37;37.19;102019.98;107080;1253;25366;-53
2024/01/13 03:23:42;;;;;;;9.00;5.90;;;;;;;-1.37;37.30;102018.79;106352;1270;1003844;-53
2024/01/13 03:26:11;;;;;;;8.60;5.50;;;;;;;-1.37;37.29;102011.64;107167;1253;22645;-52
2024/01/13 03:28:38;;;;;;;11.00;5.80;;;;;;;-1.38;37.49;102009.92;106422;1253;1003368;-52
2024/01/13 03:31:09;;;;;;;7.40;5.20;;;;;;;-1.38;37.24;102008.91;106998;1265;25362;-52
2024/01/13 03:33:38;;;;;;;11.80;6.40;;;;;;;-1.39;37.40;102002.40;107130;1251;22721;-52
2024/01/13 03:36:07;;;;;;;9.10;5.30;;;;;;;-1.39;37.24;101997.80;107117;1256;24244;-52
2024/01/13 03:38:35;;;;;;;12.00;6.40;;;;;;;-1.39;37.40;101988.24;106876;1258;22500;-53
2024/01/13 03:41:13;;;;;;;15.70;7.20;;;;;;;-1.39;37.26;101986.03;107071;1255;25356;-53
2024/01/13 03:43:40;;;;;;;7.10;4.70;;;;;;;-1.39;37.32;101985.73;106343;1257;1002634;-52
2024/01/13 03:46:07;;;;;;;11.70;6.60;;;;;;;-1.39;37.21;101981.80;107155;1257;25449;-52
2024/01/13 03:48:34;;;;;;;10.40;7.00;;;;;;;-1.39;37.32;101988.93;106777;1256;25369;-52
2024/01/13 03:51:02;;;;;;;9.50;6.20;;;;;;;-1.39;37.28;101985.86;106112;1260;1003258;-52
2024/01/13 03:53:32;;;;;;;12.30;6.60;;;;;;;-1.38;37.30;101984.04;106398;1255;1003570;-51
2024/01/13 03:56:01;;;;;;;13.00;6.70;;;;;;;-1.38;37.29;101982.50;106371;1254;1003680;-52
2024/01/13 03:58:28;;;;;;;11.10;7.00;;;;;;;-1.38;37.12;101978.95;107119;1253;22534;-52
2024/01/13 04:00:55;;;;;;;17.00;8.00;;;;;;;-1.38;37.07;101979.11;106920;1267;25405;-52
2024/01/13 04:03:23;;;;;;;11.90;7.50;;;;;;;-1.40;37.09;101974.61;106196;1261;1003046;-52
2024/01/13 04:05:50;;;;;;;13.30;7.40;;;;;;;-1.40;37.10;101976.48;106764;1260;24210;-52
2024/01/13 04:08:18;;;;;;;11.30;7.30;;;;;;;-1.40;37.08;101972.91;106162;1257;1003272;-52
2024/01/13 04:10:45;;;;;;;13.60;7.40;;;;;;;-1.40;36.89;101973.04;106873;1259;25487;-52
2024/01/13 04:13:13;;;;;;;13.00;7.10;;;;;;;-1.42;37.03;101973.00;106083;1266;1002676;-52
2024/01/13 04:15:40;;;;;;;10.90;6.60;;;;;;;-1.44;37.04;101971.02;106784;1259;22530;-52
2024/01/13 04:18:07;;;;;;;13.40;8.00;;;;;;;-1.45;37.12;101973.02;106320;1254;1002865;-52
2024/01/13 04:20:34;;;;;;;10.70;7.00;;;;;;;-1.47;37.28;101970.34;107085;1263;25414;-52
2024/01/13 04:23:02;;;;;;;11.40;6.60;;;;;;;-1.47;37.35;101967.78;106392;1257;1003623;-52
2024/01/13 04:25:31;;;;;;;15.40;6.90;;;;;;;-1.47;37.41;101967.98;106774;1257;25366;-52
2024/01/13 04:28:00;;;;;;;12.40;6.80;;;;;;;-1.48;37.48;101963.52;106048;1263;1003481;-52
2024/01/13 04:30:28;;;;;;;13.00;7.20;;;;;;;-1.47;37.41;101964.04;107020;1256;25347;-52
2024/01/13 04:32:57;;;;;;;10.80;6.70;;;;;;;-1.46;37.57;101965.30;106355;1257;1002503;-52
2024/01/13 04:35:24;;;;;;;11.00;6.90;;;;;;;-1.44;37.69;101963.51;106412;1254;1004103;-52
2024/01/13 04:37:51;;;;;;;12.00;7.30;;;;;;;-1.42;37.60;101971.79;106358;1253;1003165;-52
2024/01/13 04:40:18;;;;;;;9.90;6.20;;;;;;;-1.41;37.53;101969.77;106786;1259;25356;-52
2024/01/13 04:42:45;;;;;;;10.90;6.60;;;;;;;-1.40;37.56;101966.59;107060;1266;24043;-52
2024/01/13 04:45:12;;;;;;;11.60;6.70;;;;;;;-1.38;37.64;101964.13;107113;1253;25375;-52
2024/01/13 04:47:40;;;;;;;12.10;6.70;;;;;;;-1.38;37.61;101954.61;106461;1257;1003704;-52
2024/01/13 04:50:07;;;;;;;13.10;6.00;;;;;;;-1.39;37.74;101951.33;107085;1256;25328;-52
2024/01/13 04:52:36;;;;;;;12.10;6.60;;;;;;;-1.37;37.56;101947.34;106843;1259;25356;-52
2024/01/13 04:55:03;;;;;;;13.00;7.00;;;;;;;-1.34;37.82;101946.27;106382;1256;1003692;-52
2024/01/13 04:57:31;;;;;;;13.50;6.00;;;;;;;-1.30;37.68;101942.37;107028;1251;24269;-52
2024/01/13 04:59:58;;;;;;;11.90;6.80;;;;;;;-1.29;37.71;101939.36;107062;1256;25366;-52
2024/01/13 05:02:26;;;;;;;10.30;6.10;;;;;;;-1.27;37.79;101936.04;106304;1257;1002903;-52
2024/01/13 05:04:53;;;;;;;7.30;6.10;;;;;;;-1.25;37.80;101933.61;107172;1264;25340;-52
2024/01/13 05:07:20;;;;;;;14.10;7.30;;;;;;;-1.24;37.75;101932.63;106834;1259;25430;-52
2024/01/13 05:09:49;;;;;;;11.00;6.20;;;;;;;-1.24;37.97;101927.52;107034;1256;25280;-52
2024/01/13 05:12:16;;;;;;;10.30;6.30;;;;;;;-1.23;38.08;101930.63;106355;1257;1002843;-52
2024/01/13 05:14:44;;;;;;;12.80;7.20;;;;;;;-1.21;38.11;101926.62;106893;1269;25545;-52
2024/01/13 05:17:11;;;;;;;15.90;8.80;;;;;;;-1.19;38.16;101933.85;106815;1257;25340;-52
2024/01/13 05:19:38;;;;;;;17.90;10.10;;;;;;;-1.18;38.26;101930.00;106295;1260;1003356;-52
2024/01/13 05:22:06;;;;;;;12.70;7.50;;;;;;;-1.16;38.29;101928.17;106395;1256;1003067;-52
2024/01/13 05:24:33;;;;;;;10.30;7.00;;;;;;;-1.13;38.39;101925.42;107082;1254;25337;-52
2024/01/13 05:27:00;;;;;;;12.30;7.70;;;;;;;-1.10;38.52;101919.11;107225;1254;25408;-52
2024/01/13 05:29:27;;;;;;;8.70;6.10;;;;;;;-1.07;38.48;101915.00;106260;1257;1003522;-52
2024/01/13 05:31:54;;;;;;;10.10;5.60;;;;;;;-1.03;38.47;101912.27;106108;1259;1003164;-52
2024/01/13 05:34:21;;;;;;;8.30;4.60;;;;;;;-1.01;38.39;101910.48;107083;1257;25395;-52
2024/01/13 05:36:48;;;;;;;6.70;4.60;;;;;;;-0.99;38.47;101910.23;106492;1255;1015739;-52
2024/01/13 05:39:15;;;;;;;7.30;4.60;;;;;;;-0.99;38.51;101905.29;106043;1272;1003476;-52
2024/01/13 05:41:43;;;;;;;10.90;7.10;;;;;;;-0.97;38.71;101903.17;107168;1257;25376;-52
2024/01/13 05:44:10;;;;;;;14.90;10.00;;;;;;;-0.93;38.68;101903.48;107079;1255;24205;-52
2024/01/13 05:46:37;;;;;;;14.80;9.70;;;;;;;-0.93;38.56;101901.46;107148;1257;25405;-52
2024/01/13 05:49:03;;;;;;;14.60;10.10;;;;;;;-0.93;38.71;101894.48;106268;1257;1003751;-52
2024/01/13 05:51:33;;;;;;;15.00;9.60;;;;;;;-0.92;38.75;101896.04;107183;1257;22556;-52
2024/01/13 05:54:00;;;;;;;12.20;8.20;;;;;;;-0.90;38.80;101891.20;106346;1254;1003272;-53
2024/01/13 05:56:29;;;;;;;8.30;7.10;;;;;;;-0.88;38.84;101895.20;107082;1256;25382;-52
2024/01/13 05:58:57;;;;;;;10.90;7.70;;;;;;;-0.85;38.94;101896.69;107037;1257;25389;-52
2024/01/13 06:01:24;;;;;;;9.10;6.40;;;;;;;-0.81;39.09;101895.64;106336;1257;1003516;-52
2024/01/13 06:03:51;;;;;;;10.50;5.80;;;;;;;-0.79;39.23;101887.91;107074;1257;25366;-52
2024/01/13 06:06:19;;;;;;;8.60;6.10;;;;;;;-0.77;39.40;101886.46;107081;1263;22604;-52
2024/01/13 06:08:46;;;;;;;7.30;5.40;;;;;;;-0.73;39.51;101885.08;106334;1257;1003062;-52
2024/01/13 06:11:14;;;;;;;6.80;4.90;;;;;;;-0.68;39.58;101886.48;106292;1254;1002889;-52
2024/01/13 06:13:41;;;;;;;8.40;5.10;;;;;;;-0.62;39.63;101885.38;107027;1255;24203;-53
2024/01/13 06:16:09;;;;;;;11.10;6.20;;;;;;;-0.56;39.85;101879.85;106808;1266;25471;-52
2024/01/13 06:18:36;;;;;;;10.50;5.60;;;;;;;-0.47;39.98;101875.63;107070;1263;22737;-52
2024/01/13 06:21:04;;;;;;;9.60;6.50;;;;;;;-0.33;40.15;101879.08;107050;1256;25416;-54
2024/01/13 06:23:30;;;;;;;11.20;5.90;;;;;;;-0.18;40.10;101876.48;106297;1255;1003295;-52
2024/01/13 06:25:57;;;;;;;7.70;4.70;;;;;;;0.01;39.98;101877.34;106328;1253;1003490;-52
2024/01/13 06:28:24;;;;;;;6.40;3.90;;;;;;;0.17;39.66;101881.53;106981;1257;25411;-52
2024/01/13 06:30:53;;;;;;;6.60;4.30;;;;;;;0.28;39.29;101876.18;106349;1257;1003529;-52
2024/01/13 06:33:20;;;;;;;6.80;4.10;;;;;;;0.35;38.98;101875.42;106341;1254;1002966;-52
2024/01/13 06:35:49;;;;;;;5.80;4.10;;;;;;;0.38;38.86;101875.88;107067;1257;25338;-52
2024/01/13 06:38:15;;;;;;;6.60;3.80;;;;;;;0.39;38.75;101873.84;106329;1257;1002908;-52
2024/01/13 06:40:43;;;;;;;7.70;4.60;;;;;;;0.35;38.76;101870.98;106298;1264;1003635;-52
2024/01/13 06:43:10;;;;;;;6.40;4.50;;;;;;;0.30;38.80;101871.33;106401;1250;1002834;-52
2024/01/13 06:45:37;;;;;;;10.70;4.30;;;;;;;0.25;38.85;101870.28;106313;1254;1002545;-52
2024/01/13 06:48:05;;;;;;;10.00;4.90;;;;;;;0.21;39.43;101866.52;106390;1263;1003086;-52
2024/01/13 06:50:32;;;;;;;7.80;6.00;;;;;;;0.18;39.47;101867.06;106431;1253;1002779;-54
2024/01/13 06:53:12;;;;;;;7.50;4.50;;;;;;;0.15;39.56;101865.58;107054;1256;25328;-52
2024/01/13 06:55:39;;;;;;;7.60;4.10;;;;;;;0.12;39.55;101864.65;107116;1262;22612;-52
2024/01/13 06:58:06;;;;;;;7.10;4.40;;;;;;;0.10;39.76;101865.06;106769;1259;25331;-52
2024/01/13 07:00:34;;;;;;;7.70;5.20;;;;;;;0.07;39.82;101861.53;107126;1259;25414;-52
2024/01/13 07:03:01;;;;;;;6.90;4.40;;;;;;;0.06;39.97;101860.47;106034;1259;1003108;-52
2024/01/13 07:05:29;;;;;;;5.10;3.70;;;;;;;0.03;40.05;101857.96;106123;1259;1015847;-52
2024/01/13 07:07:59;;;;;;;5.70;3.90;;;;;;;0.00;40.18;101855.84;106451;1257;1003492;-52
2024/01/13 07:10:28;;;;;;;7.20;4.30;;;;;;;0.00;40.48;101846.81;106836;1257;25331;-52
2024/01/13 07:12:55;;;;;;;7.60;5.80;;;;;;;0.04;40.62;101844.02;107123;1256;25338;-52
2024/01/13 07:15:22;;;;;;;8.30;5.70;;;;;;;0.11;40.87;101840.73;106128;1259;1003669;-52
2024/01/13 07:17:52;;;;;;;8.20;4.50;;;;;;;0.23;41.02;101832.46;106099;1257;1003401;-52
2024/01/13 07:20:19;;;;;;;10.70;5.40;;;;;;;0.38;40.91;101831.48;107223;1256;26720;-52
2024/01/13 07:22:46;;;;;;;9.50;6.50;;;;;;;0.54;40.62;101823.19;106378;1266;1003559;-52
2024/01/13 07:25:13;;;;;;;6.90;3.50;;;;;;;0.70;40.66;101813.86;106392;1257;1002854;-52
2024/01/13 07:27:40;;;;;;;7.70;4.50;;;;;;;0.86;40.52;101807.25;106281;1259;1003058;-52
2024/01/13 07:30:07;;;;;;;5.10;3.40;;;;;;;1.02;40.29;101800.63;106125;1269;1002978;-52
2024/01/13 07:32:35;;;;;;;5.30;3.40;;;;;;;1.16;39.89;101797.18;107093;1256;25343;-52
2024/01/13 07:35:03;;;;;;;9.10;3.70;;;;;;;1.29;39.83;101794.17;107099;1266;25442;-52
2024/01/13 07:37:31;;;;;;;7.30;5.00;;;;;;;1.40;39.84;101792.48;106226;1259;1003433;-52
2024/01/13 07:39:58;;;;;;;8.80;4.90;;;;;;;1.49;39.75;101791.25;106164;1261;1003017;-53
2024/01/13 07:42:25;;;;;;;7.80;5.10;;;;;;;1.58;39.32;101790.16;106379;1255;1003771;-52
2024/01/13 07:44:52;;;;;;;6.50;5.00;;;;;;;1.63;39.36;101790.80;106444;1258;1002994;-52
2024/01/13 07:47:19;;;;;;;9.10;4.80;;;;;;;1.64;39.36;101783.17;106075;1259;1002904;-53
2024/01/13 07:49:46;;;;;;;7.70;4.50;;;;;;;1.65;39.33;101786.09;106344;1263;1003016;-52
2024/01/13 07:52:13;;;;;;;6.70;4.40;;;;;;;1.63;39.14;101778.52;105858;1263;1003347;-52
2024/01/13 07:54:41;;;;;;;6.00;3.80;;;;;;;1.62;39.06;101779.69;106175;1259;1003274;-52
2024/01/13 07:57:09;;;;;;;5.60;3.60;;;;;;;1.62;38.91;101777.61;106350;1256;1002533;-52
2024/01/13 07:59:36;;;;;;;5.00;3.30;;;;;;;1.61;38.62;101778.80;106325;1266;1003463;-52
2024/01/13 08:02:03;;;;;;;5.20;3.60;;;;;;;1.58;38.56;101780.58;106328;1256;1003201;-52
2024/01/13 08:04:30;;;;;;;4.80;3.40;;;;;;;1.54;38.32;101781.14;106353;1257;1003249;-53
2024/01/13 08:06:57;;;;;;;5.30;3.50;;;;;;;1.48;38.58;101778.55;106356;1253;1002876;-52
2024/01/13 08:09:25;;;;;;;5.80;4.00;;;;;;;1.45;38.97;101781.34;107076;1257;25443;-52
2024/01/13 08:11:52;;;;;;;6.80;4.30;;;;;;;1.41;39.15;101783.80;107208;1257;25366;-52
2024/01/13 08:14:21;;;;;;;6.10;4.40;;;;;;;1.38;39.50;101782.51;106143;1266;1002957;-52
2024/01/13 08:16:48;;;;;;;4.80;3.50;;;;;;;1.37;39.67;101784.36;106726;1257;25487;-52
2024/01/13 08:19:15;;;;;;;5.00;3.30;;;;;;;1.38;39.82;101785.06;107082;1257;25365;-52
2024/01/13 08:21:43;;;;;;;5.80;3.80;;;;;;;1.41;39.95;101784.48;106363;1255;1003139;-53
2024/01/13 08:24:10;;;;;;;6.00;3.00;;;;;;;1.46;39.70;101787.20;106355;1257;1002883;-50
2024/01/13 08:26:39;;;;;;;4.60;3.20;;;;;;;1.50;39.09;101781.55;107093;1254;25799;-52
2024/01/13 08:29:06;;;;;;;6.20;4.30;;;;;;;1.56;39.40;101780.84;106851;1257;25365;-52
2024/01/13 08:31:33;;;;;;;6.40;3.60;;;;;;;1.63;38.96;101781.58;106806;1272;25509;-52
2024/01/13 08:34:10;;;;;;;4.60;3.00;;;;;;;1.77;39.00;101785.06;107083;1258;25344;-52
2024/01/13 08:36:42;;;;;;;5.70;3.10;;;;;;;1.88;38.90;101782.66;106712;1259;25411;-52
2024/01/13 08:39:10;;;;;;;4.90;3.30;;;;;;;1.97;38.85;101781.41;107183;1261;25405;-52
2024/01/13 08:41:38;;;;;;;6.10;4.20;;;;;;;2.06;38.91;101779.27;107488;1256;25322;-53
2024/01/13 08:44:06;;;;;;;6.10;4.20;;;;;;;2.12;38.75;101769.86;106534;1256;1015625;-54
2024/01/13 08:46:34;;;;;;;6.00;4.10;;;;;;;2.17;38.62;101765.90;106281;1257;1002938;-52
2024/01/13 08:49:00;;;;;;;6.50;4.00;;;;;;;2.22;38.66;101766.39;106148;1256;1003301;-51
2024/01/13 08:51:28;;;;;;;12.40;3.40;;;;;;;2.27;38.71;101766.50;106344;1257;1002555;-52
2024/01/13 08:54:03;;;;;;;4.90;3.30;;;;;;;2.32;38.69;101761.69;107113;1256;25408;-51
2024/01/13 08:56:34;;;;;;;3.50;3.10;;;;;;;2.36;38.72;101756.16;106121;1262;1003666;-52
2024/01/13 08:59:02;;;;;;;5.40;4.00;;;;;;;2.39;38.24;101754.19;107237;1256;24228;-51
2024/01/13 09:01:29;;;;;;;4.50;3.30;;;;;;;2.42;38.31;101752.40;107348;1255;22530;-51
2024/01/13 09:04:05;;;;;;;4.50;3.10;;;;;;;2.46;38.50;101748.73;106589;1259;1005546;-52
2024/01/13 09:06:33;;;;;;;5.00;3.80;;;;;;;2.49;38.32;101745.90;106763;1263;1004181;-50
2024/01/13 09:09:02;;;;;;;6.30;4.10;;;;;;;2.50;38.50;101736.15;106668;1257;1003802;-51
2024/01/13 09:11:31;;;;;;;5.50;3.70;;;;;;;2.52;38.79;101729.04;106578;1257;1002930;-51
2024/01/13 09:14:10;;;;;;;3.80;3.00;;;;;;;2.55;38.82;101723.26;107103;1257;25359;-52
2024/01/13 09:16:38;;;;;;;5.30;3.50;;;;;;;2.56;38.97;101716.46;106230;1267;1003116;-52
2024/01/13 09:19:05;;;;;;;5.80;3.50;;;;;;;2.58;38.90;101711.03;107333;1257;25350;-52
2024/01/13 09:21:32;;;;;;;5.00;3.80;;;;;;;2.60;39.05;101704.73;106865;1259;25342;-52
2024/01/13 09:24:09;;;;;;;3.70;3.00;;;;;;;2.61;38.93;101704.60;106505;1273;1002978;-50
2024/01/13 09:26:41;;;;;;;4.40;3.30;;;;;;;2.62;39.03;101700.67;107213;1256;25366;-50
2024/01/13 09:29:09;;;;;;;5.90;3.70;;;;;;;2.63;38.95;101696.27;107248;1256;24043;-51
2024/01/13 09:31:37;;;;;;;7.50;5.30;;;;;;;2.65;38.98;101689.10;106731;1257;1003328;-51
2024/01/13 09:34:07;;;;;;;11.00;6.90;;;;;;;2.65;39.16;101684.64;106805;1266;1003130;-51
2024/01/13 09:36:35;;;;;;;14.00;8.60;;;;;;;2.64;39.51;101677.77;107366;1259;24036;-51
2024/01/13 09:39:02;;;;;;;15.40;10.70;;;;;;;2.64;39.48;101676.92;107076;1267;22531;-51
2024/01/13 09:41:29;;;;;;;9.60;6.90;;;;;;;2.64;39.79;101675.20;106652;1262;1003641;-51
2024/01/13 09:44:05;;;;;;;10.00;6.00;;;;;;;2.64;39.90;101672.48;106593;1257;1003398;-51
2024/01/13 09:46:32;;;;;;;13.80;9.30;;;;;;;2.64;39.94;101669.04;107243;1257;22984;-51
2024/01/13 09:48:59;;;;;;;10.60;6.80;;;;;;;2.64;39.98;101671.95;107152;1256;25368;-52
2024/01/13 09:51:27;;;;;;;7.70;5.90;;;;;;;2.63;39.97;101665.58;107303;1259;25456;-52
2024/01/13 09:54:23;;;;;;;7.40;5.00;;;;;;;2.62;40.28;101662.65;107257;1269;25365;-51
2024/01/13 09:56:51;;;;;;;5.90;4.20;;;;;;;2.62;40.49;101660.95;107350;1269;22538;-51
2024/01/13 09:59:22;;;;;;;7.00;4.30;;;;;;;2.63;40.31;101656.17;106399;1272;1002855;-51
2024/01/13 10:01:49;;;;;;;5.20;3.20;;;;;;;2.63;40.57;101649.31;107253;1273;25482;-51
2024/01/13 10:04:16;;;;;;;5.50;3.90;;;;;;;2.65;40.57;101644.39;107381;1267;25396;-51
2024/01/13 10:06:44;;;;;;;12.60;6.60;;;;;;;2.65;40.47;101640.13;106681;1267;1002859;-51
2024/01/13 10:09:11;;;;;;;9.40;5.60;;;;;;;2.67;40.83;101636.23;106436;1269;1003308;-50
2024/01/13 10:11:58;;;;;;;9.10;5.40;;;;;;;2.71;40.69;101632.55;107433;1266;24458;-51
2024/01/13 10:14:25;;;;;;;11.80;5.70;;;;;;;2.73;40.85;101632.43;107055;1259;25239;-51
2024/01/13 10:16:55;;;;;;;8.30;4.70;;;;;;;2.77;40.87;101626.18;105926;1260;1002976;-53
2024/01/13 10:19:23;;;;;;;6.60;5.30;;;;;;;2.81;41.02;101620.11;106124;1271;1002978;-52
2024/01/13 10:21:54;;;;;;;6.90;5.70;;;;;;;2.85;41.02;101617.15;106892;1258;22684;-51
2024/01/13 10:24:21;;;;;;;7.30;4.00;;;;;;;2.91;41.04;101617.27;106735;1262;25494;-51
2024/01/13 10:26:48;;;;;;;7.60;3.90;;;;;;;2.97;40.92;101610.21;106941;1260;25353;-51
2024/01/13 10:29:15;;;;;;;6.20;4.00;;;;;;;3.04;41.35;101606.94;105765;1254;1003556;-51
2024/01/13 10:31:42;;;;;;;6.60;4.10;;;;;;;3.10;41.20;101598.34;107042;1270;25520;-51
2024/01/13 10:34:10;;;;;;;5.80;5.20;;;;;;;3.14;41.04;101593.61;106769;1259;22676;-50
2024/01/13 10:36:38;;;;;;;5.90;4.60;;;;;;;3.16;41.23;101584.92;105820;1277;1003030;-52
2024/01/13 10:39:05;;;;;;;6.20;4.60;;;;;;;3.19;41.20;101585.14;106331;1258;1002610;-51
2024/01/13 10:41:32;;;;;;;4.90;3.90;;;;;;;3.21;41.29;101588.45;106914;1274;25496;-51
2024/01/13 10:44:07;;;;;;;7.70;4.10;;;;;;;3.20;41.23;101586.73;106562;1277;25411;-52
2024/01/13 10:46:35;;;;;;;5.10;4.10;;;;;;;3.18;41.21;101588.58;106246;1267;1003118;-51
2024/01/13 10:49:03;;;;;;;7.10;4.50;;;;;;;3.15;41.09;101586.96;106271;1257;1003369;-51
2024/01/13 10:51:39;;;;;;;7.90;4.40;;;;;;;3.11;41.41;101589.63;106320;1256;1003439;-51
2024/01/13 10:54:07;;;;;;;6.60;4.40;;;;;;;3.05;41.79;101584.51;106561;1256;1003025;-51
2024/01/13 10:56:35;;;;;;;8.20;4.60;;;;;;;3.00;42.25;101583.02;106050;1267;1015719;-51
2024/01/13 10:59:02;;;;;;;7.30;4.40;;;;;;;2.95;42.63;101583.95;107094;1254;25334;-51
2024/01/13 11:01:30;;;;;;;6.00;4.70;;;;;;;2.91;42.69;101577.86;106417;1271;1002476;-51
2024/01/13 11:04:03;;;;;;;8.00;4.30;;;;;;;2.87;43.23;101574.35;107110;1255;24198;-52
2024/01/13 11:06:30;;;;;;;7.10;4.70;;;;;;;2.86;43.51;101573.81;106973;1262;22527;-50
2024/01/13 11:08:58;;;;;;;8.40;5.00;;;;;;;2.87;43.62;101570.05;107263;1258;25391;-52
2024/01/13 11:11:28;;;;;;;7.00;4.90;;;;;;;2.90;43.67;101569.42;107330;1269;25399;-51
2024/01/13 11:14:12;;;;;;;6.60;4.70;;;;;;;2.95;43.87;101565.44;106706;1263;1002995;-51
2024/01/13 11:16:39;;;;;;;8.30;4.50;;;;;;;2.97;43.75;101561.88;107243;1267;22523;-51